world map with LJCE marked

LJCE - Airport

This information may not be accurate or current and is not valid for navigation or flight planning. No warranty of fitness for any purpose is made or implied.

flag of Slovenia

Donate via PayPal

Additional information is available on the NEW Great Circle Mapper

Location
City:  Krsko Cerklje, Slovenia
Name:Cerklje
ICAO:LJCE

Details
Type:Airport (Aerodrome, Airfield)
Use:Military
Latitude:45°54'00"N (45.899971)
Longitude:15°31'49"E (15.530194)
Datum:WGS 1984
Elevation:510 ft (155 m)
Runways:1
Longest:7980 × 150 ft (2432 × 45.5 m)

Time
Timezone:UTC+1 (DST+4)
Local Time:

Weather
METAR:LJCE  181930Z 17002KT 5000 BR SCT035 M02/M03 Q1029 RMK WHT

Related Locations
Nearby:
Farthest:CHT: 11834 mi / 19045 km
Waitangi [Tuuta], CIT, NZ

Find:

   beyond  
but within

Other Information
Maps:
Sources:

  


 


Great Circle Mapper   Great Circle Mapper
Great Circle Mapper FAQ   Great Circle Mapper FAQ
  Karl's Home Page
KLSē   KLSē Home
   GC on Facebook
Airlines of the World   Airlines of the World
Donate via PayPal


Copyright © 2004-2018, Karl L. Swartz. All rights reserved.
All trademarks mentioned herein belong to their respective owners.

Please see credits for attribution and copyright information.

Karl Swartz <karl@kls2.com>
  Powered by FreeBSD
Valid HTML 4.01!
Labeled with ICRA
hCard Microformat
Geo Microformat